עמוד ראשי
METAR-TAF:

METAR-TAF

שדות תעופה :

Salalah, עומאן

קו רוחב: 17-02N, קו אורך: 054-05E, גובה: 20מטר

תצפית מזג אוויר נוכחית

הדו"ח נערך לפני 1 שעות ו 3דקות, בשעה 00:50 UTC
רוח 4קשר מכיוון מזרח/דרום-מזרח
טמפרטורת 25 צלסיוס
לחות 100%
לחץ 1002 hPa
ראות: 3000מטר
עננים פזורים בגובה 300רגל
עננים בינוניים בגובה 800רגל
מעונן בגובה 1400רגל
טפטוף קל, אד,

METAR: OOSA 220050Z 12004KT 3000 -DZ BR SCT003 BKN008 OVC014 25/25 Q1002 NOSIG

זמן: 05:53 (01:53 UTC)

תחזית

הדו"ח נערך לפני 2 שעות ו 53דקות, בשעה 23:00 UTC
תחזית בתוקף מ 22 ב 00 UTC עד 23 ב 06 UTC
רוח 5קשר מכיוון דרום/דרום-מזרח
ראות: 2000מטר
עננים פזורים בגובה 300רגל
עננים בינוניים בגובה 800רגל
מעונן בגובה 1200רגל
טפטוף, אד
הסתברות 30% :
זמנית מ -
22 ב 05 UTC עד 22 ב 14 UTC
ראות: 5000מטר
מעט עננים בגובה 700רגל
עננים בינוניים בגובה 1200רגל
מעונן בגובה 1800רגל
טפטוף קל,

TAF: OOSA 212300Z 2200/2306 15005KT 2000 DZ BR SCT003 BKN008 OVC012 PROB30 TEMPO 2205/2214 5000 -DZ FEW007 BKN012 OVC018

תצפיות ותחזיות מזג אוויר לגבי יותר מ- 4,000 שדות תעופה ברחבי העולם. דוחות METAR ו- TAF.

התחנות הזמינות מסומנות בנקודות צהובות ואדומות על גבי המפה.

העבר את העכבר לנקודה הצבעונית על מנת לראות את שם התחנה.

לאחר מכן, לחץ כדי לראות את תוכן ואת תחזיות מזג האוויר.

כדי לשנות את המפה: לחץ על הכפתורים הירוקים עם הפלוס השחור כדי להתקרב; על הכפתור הירוק עם המקף כדי להתרחק; או בחיצים הירוקים למפות סמוכות.


METAR-TAF: